Terminal Aerodrome Forecast
Issued by NWS

Home | Current Version | Previous Version | Text Only | Print | Product List | Glossary On
Versions: 1 2 3 4 5 6 7 8 9 10 11 12 13 14 15 16 17
845
FTPA31 PHFO 211739
TAFHOG
TAF
PHOG 211739Z 2118/2218 05012KT P6SM FEW025 SCT030 BKN050
     FM211900 06018G30KT P6SM VCSH SCT050
     FM220500 06015G28KT P6SM VCSH SCT025 BKN050
      AMD LTD TO VIS AND WIND 2209/2216=

USA.gov is the U.S. government's official web portal to all federal, state and local government web resources and services.